Time;durP1;ratioP1;P1;durP2;ratioP2;P2;SDS_P1;SDS_P2;PMS_P1;PMS_P2;Temp;Humidity;BMP_temperature;BMP_pressure;BME280_temperature;BME280_humidity;BME280_pressure;Samples;Min_cycle;Max_cycle;Signal;HPM_P1;HPM_P2
2022/04/05 00:01:15;;;;;;;54.22;15.40;;;;;;;;;;5019000;28;20033;-70
2022/04/05 00:03:41;;;;;;;54.92;16.70;;;;;;;;;;5011996;28;20278;-71
2022/04/05 00:06:06;;;;;;;53.00;15.45;;;;;;;;;;5010767;28;20653;-71
2022/04/05 00:08:31;;;;;;;73.20;19.67;;;;;;;;;;5019113;28;20498;-70
2022/04/05 00:10:56;;;;;;;45.38;15.45;;;;;;;;;;5014095;28;20269;-71
2022/04/05 00:13:21;;;;;;;50.28;15.95;;;;;;;;;;5015822;28;20029;-71
2022/04/05 00:15:46;;;;;;;53.50;16.00;;;;;;;;;;5010320;28;20465;-71
2022/04/05 00:18:12;;;;;;;52.90;16.10;;;;;;;;;;5013738;28;20021;-71
2022/04/05 00:20:37;;;;;;;41.05;14.90;;;;;;;;;;5014856;28;20423;-71
2022/04/05 00:23:02;;;;;;;49.88;14.88;;;;;;;;;;5008797;28;20036;-70
2022/04/05 00:25:28;;;;;;;45.60;15.13;;;;;;;;;;5007612;28;20025;-71
2022/04/05 00:27:53;;;;;;;37.70;15.07;;;;;;;;;;5007919;28;20030;-70
2022/04/05 00:30:19;;;;;;;34.67;13.47;;;;;;;;;;5008059;28;20347;-71
2022/04/05 00:32:44;;;;;;;45.95;16.02;;;;;;;;;;5010005;28;20294;-71
2022/04/05 00:35:10;;;;;;;48.35;16.80;;;;;;;;;;5014591;28;20032;-70
2022/04/05 00:37:35;;;;;;;46.40;16.70;;;;;;;;;;5008809;28;20113;-71
2022/04/05 00:40:04;;;;;;;49.58;16.48;;;;;;;;;;5018921;28;20025;-71
2022/04/05 00:42:29;;;;;;;59.75;17.83;;;;;;;;;;5010046;28;20033;-70
2022/04/05 00:44:54;;;;;;;61.95;19.05;;;;;;;;;;5012471;28;20057;-70
2022/04/05 00:47:21;;;;;;;69.80;18.23;;;;;;;;;;5009334;28;20088;-70
2022/04/05 00:49:47;;;;;;;37.22;14.02;;;;;;;;;;5014164;28;20021;-71
2022/04/05 00:52:13;;;;;;;54.40;19.02;;;;;;;;;;5011462;28;20431;-69
2022/04/05 00:54:39;;;;;;;68.20;20.77;;;;;;;;;;5015590;28;20075;-69
2022/04/05 00:57:08;;;;;;;50.72;14.00;;;;;;;;;;5009184;28;20037;-69
2022/04/05 00:59:35;;;;;;;58.63;18.92;;;;;;;;;;5014776;28;20025;-69
2022/04/05 01:02:01;;;;;;;58.08;16.95;;;;;;;;;;5017624;28;20061;-69
2022/04/05 01:04:28;;;;;;;65.20;19.85;;;;;;;;;;5012257;28;20171;-69
2022/04/05 01:06:54;;;;;;;52.72;16.58;;;;;;;;;;5009684;28;20468;-71
2022/04/05 01:09:19;;;;;;;70.88;19.27;;;;;;;;;;5011272;28;20084;-69
2022/04/05 01:11:45;;;;;;;43.78;15.60;;;;;;;;;;5007511;28;20401;-70
2022/04/05 01:14:10;;;;;;;48.17;15.18;;;;;;;;;;5010898;28;20025;-71
2022/04/05 01:16:38;;;;;;;41.60;14.13;;;;;;;;;;5014173;28;20432;-70
2022/04/05 01:19:04;;;;;;;62.03;18.08;;;;;;;;;;5019972;28;20262;-68
2022/04/05 01:21:29;;;;;;;68.05;19.58;;;;;;;;;;5006354;28;20013;-68
2022/04/05 01:24:05;;;;;;;65.85;17.63;;;;;;;;;;5012466;28;20109;-68
2022/04/05 01:26:36;;;;;;;47.70;12.32;;;;;;;;;;5008400;28;20484;-68
2022/04/05 01:29:01;;;;;;;54.00;14.07;;;;;;;;;;5011947;28;20033;-68
2022/04/05 01:31:27;;;;;;;53.55;17.45;;;;;;;;;;5006961;28;20055;-69
2022/04/05 01:33:52;;;;;;;62.10;16.07;;;;;;;;;;5010686;28;20266;-68
2022/04/05 01:36:21;;;;;;;58.83;16.35;;;;;;;;;;5008173;28;20297;-68
2022/04/05 01:38:46;;;;;;;53.10;15.95;;;;;;;;;;5015422;28;20029;-69
2022/04/05 01:41:11;;;;;;;45.92;13.93;;;;;;;;;;5007926;28;20611;-69
2022/04/05 01:43:37;;;;;;;57.42;17.10;;;;;;;;;;5012233;28;20029;-68
2022/04/05 01:46:02;;;;;;;39.43;12.67;;;;;;;;;;5013231;28;20033;-69
2022/04/05 01:48:27;;;;;;;75.43;18.27;;;;;;;;;;5013023;28;20281;-68
2022/04/05 01:50:52;;;;;;;58.63;15.85;;;;;;;;;;5010155;28;20058;-68
2022/04/05 01:53:17;;;;;;;56.60;13.68;;;;;;;;;;5005002;28;20381;-68
2022/04/05 01:55:42;;;;;;;53.87;15.07;;;;;;;;;;5014226;28;20022;-69
2022/04/05 01:58:08;;;;;;;74.50;18.77;;;;;;;;;;5017787;28;20544;-68
2022/04/05 02:00:33;;;;;;;67.32;17.00;;;;;;;;;;5012025;28;20022;-69
2022/04/05 02:02:58;;;;;;;60.25;15.95;;;;;;;;;;5013827;28;20022;-68
2022/04/05 02:05:23;;;;;;;69.55;16.48;;;;;;;;;;5011420;28;20085;-68
2022/04/05 02:07:48;;;;;;;48.17;13.65;;;;;;;;;;5016401;28;20279;-69
2022/04/05 02:10:14;;;;;;;52.50;14.25;;;;;;;;;;5016883;28;20026;-68
2022/04/05 02:12:40;;;;;;;64.35;16.48;;;;;;;;;;5017786;28;20431;-68
2022/04/05 02:15:05;;;;;;;57.35;15.93;;;;;;;;;;5018708;28;20025;-69
2022/04/05 02:17:31;;;;;;;50.22;14.18;;;;;;;;;;5013330;28;20025;-68
2022/04/05 02:19:56;;;;;;;51.75;14.57;;;;;;;;;;5014642;28;20029;-69
2022/04/05 02:22:22;;;;;;;51.65;15.10;;;;;;;;;;5020865;28;20341;-69
2022/04/05 02:24:47;;;;;;;53.17;13.20;;;;;;;;;;5012566;28;20018;-69
2022/04/05 02:27:12;;;;;;;46.65;13.52;;;;;;;;;;5014865;28;20474;-69
2022/04/05 02:29:37;;;;;;;47.07;14.70;;;;;;;;;;5016217;28;20108;-69
2022/04/05 02:32:02;;;;;;;51.45;15.25;;;;;;;;;;5015503;28;20266;-68
2022/04/05 02:34:28;;;;;;;51.53;13.25;;;;;;;;;;5016425;28;20034;-69
2022/04/05 02:36:53;;;;;;;40.47;12.90;;;;;;;;;;5013438;28;20026;-68
2022/04/05 02:39:18;;;;;;;51.38;14.68;;;;;;;;;;5018672;28;20367;-68
2022/04/05 02:41:43;;;;;;;54.03;14.50;;;;;;;;;;5014803;28;20022;-68
2022/04/05 02:44:08;;;;;;;37.30;11.00;;;;;;;;;;5019265;28;20669;-68
2022/04/05 02:46:34;;;;;;;24.97;7.80;;;;;;;;;;5014852;28;20022;-68
2022/04/05 02:48:59;;;;;;;21.80;7.05;;;;;;;;;;5012604;28;20277;-68
2022/04/05 02:51:24;;;;;;;22.42;6.68;;;;;;;;;;5025198;28;20029;-68
2022/04/05 02:53:49;;;;;;;16.08;7.07;;;;;;;;;;5019345;28;20060;-68
2022/04/05 02:56:15;;;;;;;21.10;6.82;;;;;;;;;;5019977;28;20018;-68
2022/04/05 02:58:40;;;;;;;24.50;7.43;;;;;;;;;;5017874;28;20033;-68
2022/04/05 03:01:05;;;;;;;16.63;6.57;;;;;;;;;;5019720;28;20259;-68
2022/04/05 03:03:32;;;;;;;24.45;6.00;;;;;;;;;;5010360;28;20049;-68
2022/04/05 03:05:57;;;;;;;13.48;5.13;;;;;;;;;;5012545;28;20388;-69
2022/04/05 03:08:22;;;;;;;13.52;5.38;;;;;;;;;;5015459;28;20025;-68
2022/04/05 03:10:48;;;;;;;17.80;6.03;;;;;;;;;;5018120;28;20033;-69
2022/04/05 03:13:13;;;;;;;15.15;5.68;;;;;;;;;;5015862;28;20345;-69
2022/04/05 03:15:38;;;;;;;15.83;5.57;;;;;;;;;;5015929;28;20036;-69
2022/04/05 03:18:03;;;;;;;14.93;5.50;;;;;;;;;;5014181;28;20271;-69
2022/04/05 03:20:29;;;;;;;19.80;5.63;;;;;;;;;;5017650;28;20026;-69
2022/04/05 03:22:55;;;;;;;15.30;6.15;;;;;;;;;;5013810;28;20022;-69
2022/04/05 03:25:22;;;;;;;16.83;5.82;;;;;;;;;;5014327;28;20018;-69
2022/04/05 03:27:48;;;;;;;19.80;5.72;;;;;;;;;;5016124;28;20041;-69
2022/04/05 03:30:14;;;;;;;17.25;6.03;;;;;;;;;;5018619;28;20408;-69
2022/04/05 03:32:39;;;;;;;21.45;6.82;;;;;;;;;;5014313;28;20199;-69
2022/04/05 03:35:05;;;;;;;18.13;6.53;;;;;;;;;;5014433;28;20168;-69
2022/04/05 03:37:30;;;;;;;26.25;8.13;;;;;;;;;;5015140;28;20151;-69
2022/04/05 03:39:56;;;;;;;20.05;6.45;;;;;;;;;;5015180;28;20438;-69
2022/04/05 03:42:21;;;;;;;26.33;8.10;;;;;;;;;;5012810;28;20033;-69
2022/04/05 03:44:46;;;;;;;29.13;9.18;;;;;;;;;;5010866;28;20367;-69
2022/04/05 03:47:11;;;;;;;39.80;10.93;;;;;;;;;;5012575;28;20041;-69
2022/04/05 03:49:36;;;;;;;35.55;11.50;;;;;;;;;;5012734;28;20113;-69
2022/04/05 03:52:02;;;;;;;47.65;12.90;;;;;;;;;;5018451;28;20255;-69
2022/04/05 03:54:27;;;;;;;51.28;14.82;;;;;;;;;;5024464;28;20128;-69
2022/04/05 03:56:52;;;;;;;64.97;17.02;;;;;;;;;;5014454;28;20018;-69
2022/04/05 03:59:17;;;;;;;56.17;14.82;;;;;;;;;;5015084;28;20056;-69
2022/04/05 04:01:42;;;;;;;56.80;16.10;;;;;;;;;;5018191;28;20025;-70
2022/04/05 04:04:08;;;;;;;54.83;15.90;;;;;;;;;;5012605;28;20375;-70
2022/04/05 04:06:33;;;;;;;53.08;15.30;;;;;;;;;;5020430;28;20816;-70
2022/04/05 04:08:58;;;;;;;59.45;17.52;;;;;;;;;;5017620;28;20030;-68
2022/04/05 04:11:24;;;;;;;50.45;14.40;;;;;;;;;;5012145;28;20079;-70
2022/04/05 04:13:49;;;;;;;44.28;14.85;;;;;;;;;;5010938;28;20320;-70
2022/04/05 04:16:14;;;;;;;47.15;15.52;;;;;;;;;;5017058;28;20036;-70
2022/04/05 04:18:39;;;;;;;49.20;14.77;;;;;;;;;;5010506;28;20010;-70
2022/04/05 04:21:04;;;;;;;45.50;13.75;;;;;;;;;;5010771;28;20346;-70
2022/04/05 04:23:30;;;;;;;48.07;14.57;;;;;;;;;;5012983;28;20136;-70
2022/04/05 04:25:56;;;;;;;49.90;15.13;;;;;;;;;;5013332;28;20298;-69
2022/04/05 04:28:21;;;;;;;80.38;23.55;;;;;;;;;;5014100;28;20021;-70
2022/04/05 04:30:46;;;;;;;67.30;17.42;;;;;;;;;;5015521;28;20017;-70
2022/04/05 04:33:13;;;;;;;59.80;16.58;;;;;;;;;;5021402;28;20021;-69
2022/04/05 04:35:38;;;;;;;52.25;15.57;;;;;;;;;;5016221;28;20321;-70
2022/04/05 04:38:05;;;;;;;47.33;15.75;;;;;;;;;;5014714;28;20069;-70
2022/04/05 04:40:30;;;;;;;61.83;16.85;;;;;;;;;;5017907;28;20049;-70
2022/04/05 04:42:55;;;;;;;54.67;15.50;;;;;;;;;;5019472;28;20075;-70
2022/04/05 04:45:23;;;;;;;57.42;17.45;;;;;;;;;;5018654;28;20087;-72
2022/04/05 04:47:49;;;;;;;64.72;18.27;;;;;;;;;;5015244;28;20022;-70
2022/04/05 04:50:14;;;;;;;51.88;15.48;;;;;;;;;;5014412;28;20499;-70
2022/04/05 04:52:39;;;;;;;73.28;17.52;;;;;;;;;;5020850;28;20026;-72
2022/04/05 04:55:05;;;;;;;59.93;15.20;;;;;;;;;;5021814;28;20391;-72
2022/04/05 04:57:30;;;;;;;58.25;14.80;;;;;;;;;;5020655;28;20271;-71
2022/04/05 04:59:55;;;;;;;47.77;14.77;;;;;;;;;;5017815;28;20048;-70
2022/04/05 05:02:23;;;;;;;52.08;14.10;;;;;;;;;;5014830;28;20553;-73
2022/04/05 05:04:49;;;;;;;34.15;12.25;;;;;;;;;;5017549;28;20026;-71
2022/04/05 05:07:15;;;;;;;58.95;15.88;;;;;;;;;;5011374;28;20688;-72
2022/04/05 05:09:40;;;;;;;65.93;19.20;;;;;;;;;;5005631;28;20326;-68
2022/04/05 05:12:06;;;;;;;49.72;16.55;;;;;;;;;;5010225;28;20436;-71
2022/04/05 05:14:31;;;;;;;55.25;16.27;;;;;;;;;;5012495;28;20457;-69
2022/04/05 05:16:56;;;;;;;60.20;17.60;;;;;;;;;;5017474;28;20109;-70
2022/04/05 05:19:21;;;;;;;63.15;18.23;;;;;;;;;;5018457;28;20096;-70
2022/04/05 05:21:46;;;;;;;59.70;16.70;;;;;;;;;;5007079;28;20726;-69
2022/04/05 05:24:12;;;;;;;80.15;20.13;;;;;;;;;;5010123;28;20025;-70
2022/04/05 05:26:37;;;;;;;64.75;20.42;;;;;;;;;;5010975;28;20049;-69
2022/04/05 05:29:02;;;;;;;82.13;20.10;;;;;;;;;;5007437;28;20271;-69
2022/04/05 05:31:27;;;;;;;78.55;22.30;;;;;;;;;;5010120;28;20637;-69
2022/04/05 05:33:52;;;;;;;68.03;17.98;;;;;;;;;;5006889;28;20053;-69
2022/04/05 05:36:17;;;;;;;76.30;21.83;;;;;;;;;;5013890;28;20104;-69
2022/04/05 05:38:43;;;;;;;59.58;17.75;;;;;;;;;;5009900;28;20259;-68
2022/04/05 05:41:08;;;;;;;59.25;18.25;;;;;;;;;;5008712;28;20083;-69
2022/04/05 05:43:33;;;;;;;60.40;20.17;;;;;;;;;;5005651;28;20026;-68
2022/04/05 05:45:58;;;;;;;45.65;15.00;;;;;;;;;;5012387;28;20266;-69
2022/04/05 05:48:23;;;;;;;66.47;19.50;;;;;;;;;;5023126;28;20055;-69
2022/04/05 05:50:49;;;;;;;67.00;19.53;;;;;;;;;;5015133;28;20029;-68
2022/04/05 05:53:15;;;;;;;57.97;17.05;;;;;;;;;;5013921;28;20348;-69
2022/04/05 05:55:40;;;;;;;48.22;14.88;;;;;;;;;;5013415;28;20021;-68
2022/04/05 05:58:05;;;;;;;64.22;20.58;;;;;;;;;;5013152;28;20057;-68
2022/04/05 06:00:30;;;;;;;53.60;17.70;;;;;;;;;;5013887;28;20059;-70
2022/04/05 06:02:58;;;;;;;65.60;19.87;;;;;;;;;;5003002;28;20033;-67
2022/04/05 06:05:23;;;;;;;57.83;17.42;;;;;;;;;;5008132;28;20320;-68
2022/04/05 06:07:49;;;;;;;74.78;25.80;;;;;;;;;;5016840;28;20041;-69
2022/04/05 06:10:14;;;;;;;61.87;18.80;;;;;;;;;;5012501;28;20057;-68
2022/04/05 06:12:40;;;;;;;47.90;17.25;;;;;;;;;;5013471;28;20250;-69
2022/04/05 06:15:08;;;;;;;48.33;14.50;;;;;;;;;;5015329;28;20034;-69
2022/04/05 06:17:34;;;;;;;63.20;16.67;;;;;;;;;;5015159;28;20489;-69
2022/04/05 06:19:59;;;;;;;59.30;19.33;;;;;;;;;;5019757;28;20029;-69
2022/04/05 06:22:24;;;;;;;48.30;16.23;;;;;;;;;;5016259;28;20025;-69
2022/04/05 06:24:49;;;;;;;53.17;16.45;;;;;;;;;;5013065;28;20419;-69
2022/04/05 06:27:15;;;;;;;68.25;22.23;;;;;;;;;;5013750;28;20042;-69
2022/04/05 06:29:40;;;;;;;59.40;20.02;;;;;;;;;;5012306;28;20080;-73
2022/04/05 06:32:05;;;;;;;92.45;29.20;;;;;;;;;;5007147;28;20029;-69
2022/04/05 06:34:30;;;;;;;69.13;19.40;;;;;;;;;;5012150;28;20033;-70
2022/04/05 06:36:56;;;;;;;50.05;16.58;;;;;;;;;;5011134;28;20061;-71
2022/04/05 06:39:21;;;;;;;58.50;18.50;;;;;;;;;;5011097;28;20420;-69
2022/04/05 06:41:46;;;;;;;69.37;23.67;;;;;;;;;;5013378;28;20258;-70
2022/04/05 06:44:11;;;;;;;55.17;18.98;;;;;;;;;;5006022;28;21007;-70
2022/04/05 06:46:36;;;;;;;47.70;14.40;;;;;;;;;;5012689;28;20062;-70
2022/04/05 06:49:03;;;;;;;58.60;16.13;;;;;;;;;;5023880;28;20340;-70
2022/04/05 06:51:28;;;;;;;56.25;16.90;;;;;;;;;;5021198;28;20267;-71
2022/04/05 06:53:54;;;;;;;40.15;14.35;;;;;;;;;;5016866;28;20029;-70
2022/04/05 06:56:21;;;;;;;38.15;13.98;;;;;;;;;;5016401;28;20029;-70
2022/04/05 06:58:47;;;;;;;40.25;13.90;;;;;;;;;;5010675;28;20352;-69
2022/04/05 07:01:12;;;;;;;45.75;14.00;;;;;;;;;;5014010;28;20029;-70
2022/04/05 07:03:37;;;;;;;46.58;13.25;;;;;;;;;;5013124;28;20038;-70
2022/04/05 07:06:03;;;;;;;52.65;17.58;;;;;;;;;;5010981;28;20079;-70
2022/04/05 07:08:28;;;;;;;44.17;13.65;;;;;;;;;;5026233;28;20169;-71
2022/04/05 07:10:53;;;;;;;47.85;14.40;;;;;;;;;;5008466;28;20132;-70
2022/04/05 07:13:18;;;;;;;46.20;14.85;;;;;;;;;;5009813;28;20026;-70
2022/04/05 07:15:43;;;;;;;38.77;14.50;;;;;;;;;;5015686;28;20021;-70
2022/04/05 07:18:09;;;;;;;46.10;14.48;;;;;;;;;;5018535;28;20720;-69
2022/04/05 07:20:34;;;;;;;50.17;16.13;;;;;;;;;;5010045;28;20026;-70
2022/04/05 07:22:59;;;;;;;49.33;15.80;;;;;;;;;;5019402;28;20026;-70
2022/04/05 07:25:26;;;;;;;48.03;15.60;;;;;;;;;;5016373;28;20064;-69
2022/04/05 07:27:51;;;;;;;48.40;14.25;;;;;;;;;;5013106;28;20014;-70
2022/04/05 07:30:17;;;;;;;38.80;13.57;;;;;;;;;;5014934;28;20033;-70
2022/04/05 07:32:43;;;;;;;46.78;17.50;;;;;;;;;;5011581;28;20038;-69
2022/04/05 07:35:09;;;;;;;52.40;14.55;;;;;;;;;;5014649;28;20459;-70
2022/04/05 07:37:35;;;;;;;47.45;15.63;;;;;;;;;;5013659;28;20076;-69
2022/04/05 07:40:00;;;;;;;45.20;15.13;;;;;;;;;;5008541;28;20049;-69
2022/04/05 07:42:26;;;;;;;51.22;15.02;;;;;;;;;;5008951;28;20049;-69
2022/04/05 07:44:52;;;;;;;51.78;17.90;;;;;;;;;;5016044;28;20025;-68
2022/04/05 07:47:17;;;;;;;47.58;17.75;;;;;;;;;;5010307;28;20034;-69
2022/04/05 07:49:42;;;;;;;37.35;13.88;;;;;;;;;;5029790;28;20108;-70
2022/04/05 07:52:08;;;;;;;33.50;12.60;;;;;;;;;;5014149;28;20169;-69
2022/04/05 07:54:33;;;;;;;34.63;14.23;;;;;;;;;;5020893;28;20693;-69
2022/04/05 07:57:00;;;;;;;39.47;13.73;;;;;;;;;;5012645;28;20275;-69
2022/04/05 07:59:25;;;;;;;49.72;17.27;;;;;;;;;;5008682;28;20295;-69
2022/04/05 08:01:50;;;;;;;36.30;12.90;;;;;;;;;;5011202;28;20030;-69
2022/04/05 08:04:16;;;;;;;37.05;11.40;;;;;;;;;;5013706;28;20267;-71
2022/04/05 08:06:41;;;;;;;36.53;11.53;;;;;;;;;;5014219;28;20375;-70
2022/04/05 08:09:06;;;;;;;34.17;12.45;;;;;;;;;;5023094;28;20267;-70
2022/04/05 08:11:34;;;;;;;33.38;11.85;;;;;;;;;;5012742;28;20420;-71
2022/04/05 08:13:59;;;;;;;38.00;12.02;;;;;;;;;;5015668;28;20044;-70
2022/04/05 08:16:24;;;;;;;36.90;12.40;;;;;;;;;;5015614;28;20017;-69
2022/04/05 08:18:49;;;;;;;35.05;11.10;;;;;;;;;;5013519;28;20051;-70
2022/04/05 08:21:16;;;;;;;58.30;16.20;;;;;;;;;;5013609;28;20499;-72
2022/04/05 08:23:42;;;;;;;34.78;12.38;;;;;;;;;;5016217;28;20025;-69
2022/04/05 08:26:07;;;;;;;36.97;11.57;;;;;;;;;;5018244;28;20443;-70
2022/04/05 08:28:32;;;;;;;38.28;12.05;;;;;;;;;;5022316;28;20255;-69
2022/04/05 08:30:57;;;;;;;44.38;15.38;;;;;;;;;;5016084;28;20041;-69
2022/04/05 08:33:22;;;;;;;32.97;12.70;;;;;;;;;;5012502;28;20052;-70
2022/04/05 08:35:47;;;;;;;30.60;11.55;;;;;;;;;;5016301;28;20369;-71
2022/04/05 08:38:13;;;;;;;34.22;12.18;;;;;;;;;;5019040;28;20247;-69
2022/04/05 08:40:38;;;;;;;35.22;11.98;;;;;;;;;;5019052;28;20045;-70
2022/04/05 08:43:03;;;;;;;39.47;11.10;;;;;;;;;;5010047;28;20463;-70
2022/04/05 08:45:28;;;;;;;44.07;11.70;;;;;;;;;;5020518;28;20033;-70
2022/04/05 08:47:55;;;;;;;46.22;13.38;;;;;;;;;;5016398;28;20270;-69
2022/04/05 08:50:22;;;;;;;41.30;12.90;;;;;;;;;;5023117;28;20035;-69
2022/04/05 08:52:47;;;;;;;33.58;13.55;;;;;;;;;;5019354;28;20091;-70
2022/04/05 08:55:13;;;;;;;38.00;14.05;;;;;;;;;;5012673;28;20049;-69
2022/04/05 08:57:38;;;;;;;29.42;14.45;;;;;;;;;;5015466;28;20032;-68
2022/04/05 09:00:06;;;;;;;37.92;11.40;;;;;;;;;;5014973;28;20022;-69
2022/04/05 09:02:31;;;;;;;29.08;11.27;;;;;;;;;;5018600;28;20116;-71
2022/04/05 09:04:56;;;;;;;32.58;13.60;;;;;;;;;;5008879;28;20104;-70
2022/04/05 09:07:23;;;;;;;27.88;11.88;;;;;;;;;;5012233;28;20041;-70
2022/04/05 09:10:08;;;;;;;33.63;11.90;;;;;;;;;;5012166;28;20052;-71
2022/04/05 09:12:40;;;;;;;28.85;11.15;;;;;;;;;;5008509;28;20025;-70
2022/04/05 09:15:09;;;;;;;36.47;13.35;;;;;;;;;;5020575;28;20507;-69
2022/04/05 09:17:41;;;;;;;29.40;11.88;;;;;;;;;;5019355;28;20461;-70
2022/04/05 09:20:06;;;;;;;35.25;13.70;;;;;;;;;;5013955;28;20025;-70
2022/04/05 09:22:35;;;;;;;29.05;11.85;;;;;;;;;;5009642;28;20487;-70
2022/04/05 09:25:05;;;;;;;22.42;10.48;;;;;;;;;;5019332;28;20460;-71
2022/04/05 09:27:42;;;;;;;30.80;13.18;;;;;;;;;;5011602;28;20420;-69
2022/04/05 09:30:10;;;;;;;29.77;11.05;;;;;;;;;;5005104;28;20431;-71
2022/04/05 09:32:37;;;;;;;30.45;12.38;;;;;;;;;;5006792;28;20052;-68
2022/04/05 09:35:02;;;;;;;23.13;8.80;;;;;;;;;;5009913;28;20037;-70
2022/04/05 09:37:35;;;;;;;22.27;9.07;;;;;;;;;;5016157;28;20044;-70
2022/04/05 09:40:19;;;;;;;22.45;9.13;;;;;;;;;;5025875;28;20208;-70
2022/04/05 09:43:05;;;;;;;15.63;8.20;;;;;;;;;;5011121;28;20401;-70
2022/04/05 09:45:50;;;;;;;19.02;7.78;;;;;;;;;;5019268;28;20079;-70
2022/04/05 09:48:16;;;;;;;21.20;9.45;;;;;;;;;;5020930;28;20571;-70
2022/04/05 09:51:01;;;;;;;30.65;11.23;;;;;;;;;;5012661;28;20067;-70
2022/04/05 09:53:54;;;;;;;29.92;11.80;;;;;;;;;;5014439;28;20101;-69
2022/04/05 09:56:22;;;;;;;24.67;10.50;;;;;;;;;;5017835;28;20831;-70
2022/04/05 09:58:49;;;;;;;25.75;10.35;;;;;;;;;;5018097;28;20041;-71
2022/04/05 10:01:15;;;;;;;35.53;16.33;;;;;;;;;;5013075;28;20072;-69
2022/04/05 10:03:41;;;;;;;33.53;13.35;;;;;;;;;;5014123;28;20026;-70
2022/04/05 10:06:06;;;;;;;31.83;11.38;;;;;;;;;;5013859;28;20045;-70
2022/04/05 10:08:32;;;;;;;25.15;11.07;;;;;;;;;;5021453;28;20072;-70
2022/04/05 10:10:58;;;;;;;24.83;10.45;;;;;;;;;;5007243;28;20030;-70
2022/04/05 10:13:23;;;;;;;24.15;10.40;;;;;;;;;;5006745;28;20026;-70
2022/04/05 10:15:51;;;;;;;29.17;10.90;;;;;;;;;;5018371;28;20061;-70
2022/04/05 10:18:16;;;;;;;24.65;11.30;;;;;;;;;;5011876;28;20025;-69
2022/04/05 10:20:41;;;;;;;22.38;9.05;;;;;;;;;;5010767;28;20025;-70
2022/04/05 10:23:07;;;;;;;26.48;10.60;;;;;;;;;;5013416;28;20366;-69
2022/04/05 10:25:32;;;;;;;19.50;8.40;;;;;;;;;;5028264;28;20029;-71
2022/04/05 10:27:58;;;;;;;22.02;9.35;;;;;;;;;;5018767;28;20048;-70
2022/04/05 10:30:27;;;;;;;24.92;9.70;;;;;;;;;;5018711;28;20510;-70
2022/04/05 10:32:57;;;;;;;26.35;9.90;;;;;;;;;;5010498;28;20499;-69
2022/04/05 10:35:24;;;;;;;24.58;9.15;;;;;;;;;;5024720;28;20021;-69
2022/04/05 10:37:51;;;;;;;24.83;9.60;;;;;;;;;;5017862;28;20017;-69
2022/04/05 10:40:17;;;;;;;22.83;9.10;;;;;;;;;;5016992;28;20029;-70
2022/04/05 10:42:46;;;;;;;20.55;9.02;;;;;;;;;;5015529;28;20025;-70
2022/04/05 10:45:16;;;;;;;26.40;13.65;;;;;;;;;;5014982;28;20367;-70
2022/04/05 10:47:56;;;;;;;23.25;9.93;;;;;;;;;;5012901;28;20095;-69
2022/04/05 10:50:22;;;;;;;25.05;9.63;;;;;;;;;;5018630;28;20026;-70
2022/04/05 10:52:48;;;;;;;29.90;12.25;;;;;;;;;;5021682;28;20036;-70
2022/04/05 10:55:20;;;;;;;21.40;9.13;;;;;;;;;;5024549;28;20048;-68
2022/04/05 10:57:46;;;;;;;27.20;10.52;;;;;;;;;;5019490;28;20025;-68
2022/04/05 11:00:12;;;;;;;22.98;10.80;;;;;;;;;;5017515;28;20383;-68
2022/04/05 11:02:43;;;;;;;28.42;10.57;;;;;;;;;;5014430;28;20018;-68
2022/04/05 11:05:18;;;;;;;24.20;9.13;;;;;;;;;;5015494;28;20036;-68
2022/04/05 11:07:52;;;;;;;29.25;11.90;;;;;;;;;;5020643;28;20018;-69
2022/04/05 11:10:20;;;;;;;24.60;10.25;;;;;;;;;;5012977;28;20533;-70
2022/04/05 11:12:45;;;;;;;24.73;9.75;;;;;;;;;;5017688;28;20388;-70
2022/04/05 11:15:13;;;;;;;25.23;11.55;;;;;;;;;;5009921;28;20021;-69
2022/04/05 11:17:39;;;;;;;26.27;9.93;;;;;;;;;;5017621;28;20025;-69
2022/04/05 11:20:05;;;;;;;22.33;10.38;;;;;;;;;;5027991;28;20457;-69
2022/04/05 11:22:39;;;;;;;30.80;11.15;;;;;;;;;;5015012;28;20109;-70
2022/04/05 11:25:09;;;;;;;27.17;10.55;;;;;;;;;;5013216;28;20068;-70
2022/04/05 11:27:42;;;;;;;25.15;10.20;;;;;;;;;;5018438;28;20033;-72
2022/04/05 11:30:22;;;;;;;27.80;10.03;;;;;;;;;;5014836;28;20373;-69
2022/04/05 11:33:06;;;;;;;26.33;9.07;;;;;;;;;;5014559;28;20022;-69
2022/04/05 11:35:45;;;;;;;25.42;11.32;;;;;;;;;;5017958;28;20112;-69
2022/04/05 11:38:19;;;;;;;24.83;9.65;;;;;;;;;;5019498;28;20034;-69
2022/04/05 11:40:48;;;;;;;19.00;8.50;;;;;;;;;;5008344;28;20138;-69
2022/04/05 11:43:16;;;;;;;18.27;7.50;;;;;;;;;;5013577;28;20021;-68
2022/04/05 11:45:42;;;;;;;24.13;10.15;;;;;;;;;;5032540;28;20120;-69
2022/04/05 11:48:13;;;;;;;22.88;9.50;;;;;;;;;;5012938;28;20502;-69
2022/04/05 11:50:38;;;;;;;19.20;8.40;;;;;;;;;;5010668;28;20022;-70
2022/04/05 11:53:22;;;;;;;23.23;9.13;;;;;;;;;;5020555;28;20407;-69
2022/04/05 11:56:02;;;;;;;19.25;9.18;;;;;;;;;;5020612;28;20037;-70
2022/04/05 11:58:28;;;;;;;21.08;9.68;;;;;;;;;;5019285;28;20027;-69
2022/04/05 12:00:54;;;;;;;17.85;8.50;;;;;;;;;;5016762;28;20029;-69
2022/04/05 12:03:19;;;;;;;23.45;9.82;;;;;;;;;;5021157;28;20033;-69
2022/04/05 12:05:45;;;;;;;17.02;8.25;;;;;;;;;;5019984;28;20063;-71
2022/04/05 12:08:12;;;;;;;15.25;7.25;;;;;;;;;;5026483;28;20025;-70
2022/04/05 12:10:37;;;;;;;18.88;9.75;;;;;;;;;;5020726;28;20113;-70
2022/04/05 12:13:03;;;;;;;18.83;7.88;;;;;;;;;;5021050;28;20060;-71
2022/04/05 12:15:28;;;;;;;17.65;8.05;;;;;;;;;;5020006;28;20068;-71
2022/04/05 12:18:13;;;;;;;21.73;7.68;;;;;;;;;;5017946;28;20060;-70
2022/04/05 12:20:38;;;;;;;22.58;9.40;;;;;;;;;;5019148;28;20024;-72
2022/04/05 12:23:03;;;;;;;18.45;8.38;;;;;;;;;;5015935;28;20024;-72
2022/04/05 12:25:28;;;;;;;26.63;10.37;;;;;;;;;;5016160;28;20437;-69
2022/04/05 12:27:55;;;;;;;22.58;8.05;;;;;;;;;;5018945;28;20270;-70
2022/04/05 12:30:29;;;;;;;23.80;8.43;;;;;;;;;;5013653;28;20013;-68
2022/04/05 12:33:00;;;;;;;19.33;8.65;;;;;;;;;;5021400;28;20080;-70
2022/04/05 12:35:25;;;;;;;20.90;9.25;;;;;;;;;;5011081;28;20027;-69
2022/04/05 12:37:50;;;;;;;16.97;8.37;;;;;;;;;;5010838;28;20029;-70
2022/04/05 12:40:23;;;;;;;22.95;9.57;;;;;;;;;;5019959;28;20278;-70
2022/04/05 12:42:48;;;;;;;22.83;10.35;;;;;;;;;;5020761;28;20471;-71
2022/04/05 12:45:13;;;;;;;20.95;10.25;;;;;;;;;;5016073;28;20032;-71
2022/04/05 12:47:43;;;;;;;22.23;9.23;;;;;;;;;;5013292;28;20117;-70
2022/04/05 12:50:08;;;;;;;21.83;9.18;;;;;;;;;;5019792;28;20041;-69
2022/04/05 12:52:34;;;;;;;21.83;8.60;;;;;;;;;;5025113;28;20029;-70
2022/04/05 12:55:00;;;;;;;22.42;9.82;;;;;;;;;;5016435;28;20649;-71
2022/04/05 12:57:32;;;;;;;23.88;10.63;;;;;;;;;;5012289;28;20030;-71
2022/04/05 13:00:09;;;;;;;14.43;7.72;;;;;;;;;;5016134;28;20021;-71
2022/04/05 13:02:35;;;;;;;21.13;10.45;;;;;;;;;;5010497;28;20372;-70
2022/04/05 13:07:58;;;;;;;19.90;10.00;;;;;;;;;;5016704;28;20265;-70
2022/04/05 13:10:41;;;;;;;22.73;10.50;;;;;;;;;;5020095;28;20100;-72
2022/04/05 13:13:34;;;;;;;26.92;8.52;;;;;;;;;;5015347;28;20052;-70
2022/04/05 13:15:59;;;;;;;24.55;10.82;;;;;;;;;;5014827;28;20515;-69
2022/04/05 13:18:31;;;;;;;19.88;8.75;;;;;;;;;;5016139;28;20442;-70
2022/04/05 13:21:04;;;;;;;22.65;9.05;;;;;;;;;;5015879;28;20033;-70
2022/04/05 13:23:31;;;;;;;23.08;9.75;;;;;;;;;;5017341;28;20021;-69
2022/04/05 13:25:56;;;;;;;21.67;8.88;;;;;;;;;;5020808;28;20025;-70
2022/04/05 13:28:29;;;;;;;20.23;9.00;;;;;;;;;;5013570;28;20341;-71
2022/04/05 13:30:54;;;;;;;21.73;9.18;;;;;;;;;;5026696;28;20087;-70
2022/04/05 13:33:19;;;;;;;19.90;9.43;;;;;;;;;;5015147;28;20033;-70
2022/04/05 13:35:44;;;;;;;25.42;9.20;;;;;;;;;;5007285;28;20472;-71
2022/04/05 13:38:10;;;;;;;17.13;7.97;;;;;;;;;;5014179;28;20060;-70
2022/04/05 13:40:36;;;;;;;19.98;9.10;;;;;;;;;;5015887;28;20259;-70
2022/04/05 13:43:01;;;;;;;27.33;10.30;;;;;;;;;;5017869;28;20057;-71
2022/04/05 13:45:27;;;;;;;17.83;8.18;;;;;;;;;;5019152;28;20467;-69
2022/04/05 13:47:52;;;;;;;19.08;7.35;;;;;;;;;;5013944;28;20033;-70
2022/04/05 13:50:17;;;;;;;21.87;8.27;;;;;;;;;;5015411;28;20048;-69
2022/04/05 13:52:42;;;;;;;22.37;7.73;;;;;;;;;;5019851;28;20271;-70
2022/04/05 13:55:08;;;;;;;18.15;7.43;;;;;;;;;;5012530;28;20275;-70
2022/04/05 13:57:34;;;;;;;15.45;6.78;;;;;;;;;;5017301;28;20341;-69
2022/04/05 13:59:59;;;;;;;23.70;8.38;;;;;;;;;;5022572;28;20021;-70
2022/04/05 14:02:25;;;;;;;24.83;8.80;;;;;;;;;;5016073;28;20033;-70
2022/04/05 14:04:51;;;;;;;19.05;7.82;;;;;;;;;;5025054;28;20569;-72
2022/04/05 14:07:16;;;;;;;22.40;9.02;;;;;;;;;;5020025;28;20026;-69
2022/04/05 14:09:41;;;;;;;27.00;9.45;;;;;;;;;;5022387;28;20139;-71
2022/04/05 14:12:07;;;;;;;19.60;9.25;;;;;;;;;;5012653;28;20500;-69
2022/04/05 14:14:32;;;;;;;20.90;9.77;;;;;;;;;;5048478;22;20504;-69
2022/04/05 14:16:58;;;;;;;25.02;9.40;;;;;;;;;;5037004;28;20239;-70
2022/04/05 14:19:24;;;;;;;25.58;9.70;;;;;;;;;;5037190;28;20152;-70
2022/04/05 14:21:49;;;;;;;36.08;14.45;;;;;;;;;;5037342;28;20027;-70